createdAt,value
2019-05-10T00:00:13.437Z,1.97
2019-05-10T00:02:46.591Z,1.90
2019-05-10T00:05:19.866Z,1.80
2019-05-10T00:07:53.036Z,1.80
2019-05-10T00:10:20.953Z,2.00
2019-05-10T00:12:54.060Z,2.10
2019-05-10T00:15:22.408Z,1.70
2019-05-10T00:17:51.219Z,1.80
2019-05-10T00:20:19.887Z,1.43
2019-05-10T00:22:47.566Z,1.70
2019-05-10T00:25:15.099Z,1.77
2019-05-10T00:27:42.579Z,1.67
2019-05-10T00:30:10.079Z,1.40
2019-05-10T00:32:38.426Z,1.77
2019-05-10T00:35:06.677Z,1.37
2019-05-10T00:37:34.171Z,1.60
2019-05-10T00:40:01.712Z,1.60
2019-05-10T00:42:29.196Z,1.40
2019-05-10T00:44:56.713Z,1.50
2019-05-10T00:47:24.324Z,1.50
2019-05-10T00:49:51.888Z,1.73
2019-05-10T00:52:20.163Z,1.00
2019-05-10T00:54:47.727Z,1.33
2019-05-10T00:57:15.229Z,1.50
2019-05-10T00:59:43.468Z,1.27
2019-05-10T01:02:10.945Z,1.13
2019-05-10T01:04:38.504Z,1.40
2019-05-10T01:07:06.777Z,1.20
2019-05-10T01:09:34.304Z,1.17
2019-05-10T01:12:01.936Z,1.20
2019-05-10T01:14:30.266Z,1.20
2019-05-10T01:16:57.759Z,1.33
2019-05-10T01:19:25.262Z,1.10
2019-05-10T01:21:54.022Z,1.23
2019-05-10T01:24:22.429Z,1.20
2019-05-10T01:26:50.871Z,1.30
2019-05-10T01:29:18.523Z,1.40
2019-05-10T01:31:46.712Z,1.70
2019-05-10T01:34:14.209Z,1.10
2019-05-10T01:36:43.294Z,1.23
2019-05-10T01:39:11.542Z,1.20
2019-05-10T01:41:39.018Z,1.23
2019-05-10T01:44:06.624Z,1.47
2019-05-10T01:46:34.998Z,1.10
2019-05-10T01:49:04.177Z,1.70
2019-05-10T01:51:31.741Z,1.57
2019-05-10T01:53:59.235Z,1.43
2019-05-10T01:56:27.485Z,1.23
2019-05-10T01:58:55.048Z,1.30
2019-05-10T02:01:24.043Z,1.27
2019-05-10T02:03:51.614Z,1.30
2019-05-10T02:06:19.268Z,1.93
2019-05-10T02:08:46.754Z,1.60
2019-05-10T02:11:14.427Z,1.53
2019-05-10T02:13:42.739Z,1.33
2019-05-10T02:16:10.223Z,1.30
2019-05-10T02:18:37.830Z,1.50
2019-05-10T02:21:06.091Z,1.40
2019-05-10T02:23:34.478Z,1.40
2019-05-10T02:26:09.651Z,1.33
2019-05-10T02:28:29.540Z,1.30
2019-05-10T02:30:57.840Z,1.43
2019-05-10T02:33:25.344Z,1.30
2019-05-10T02:35:52.892Z,1.50
2019-05-10T02:38:20.370Z,1.33
2019-05-10T02:40:47.866Z,1.70
2019-05-10T02:43:16.143Z,1.70
2019-05-10T02:45:44.396Z,1.07
2019-05-10T02:48:11.879Z,1.33
2019-05-10T02:50:40.981Z,1.97
2019-05-10T02:53:08.528Z,1.20
2019-05-10T02:55:36.099Z,1.17
2019-05-10T02:58:04.606Z,1.20
2019-05-10T03:00:32.852Z,1.30
2019-05-10T03:03:00.515Z,1.10
2019-05-10T03:05:28.102Z,1.10
2019-05-10T03:07:56.353Z,1.30
2019-05-10T03:10:23.856Z,1.30
2019-05-10T03:12:51.379Z,1.00
2019-05-10T03:15:18.975Z,1.33
2019-05-10T03:17:47.264Z,1.17
2019-05-10T03:20:14.901Z,1.10
2019-05-10T03:22:42.378Z,1.03
2019-05-10T03:25:10.024Z,1.10
2019-05-10T03:27:37.700Z,1.20
2019-05-10T03:30:05.193Z,1.10
2019-05-10T03:32:33.554Z,1.30
2019-05-10T03:35:01.176Z,1.03
2019-05-10T03:37:29.052Z,1.20
2019-05-10T03:39:57.780Z,1.03
2019-05-10T03:42:25.338Z,1.20
2019-05-10T03:44:52.876Z,1.00
2019-05-10T03:47:20.456Z,1.23
2019-05-10T03:49:48.024Z,1.17
2019-05-10T03:52:15.559Z,1.20
2019-05-10T03:54:43.123Z,1.37
2019-05-10T03:57:14.471Z,1.50
2019-05-10T03:59:40.174Z,1.10
2019-05-10T04:02:07.902Z,1.57
2019-05-10T04:04:35.460Z,1.20
2019-05-10T04:07:04.161Z,1.20
2019-05-10T04:09:31.694Z,1.30
2019-05-10T04:11:59.372Z,1.00
2019-05-10T04:14:27.056Z,1.70
2019-05-10T04:16:55.451Z,1.20
2019-05-10T04:19:23.833Z,1.30
2019-05-10T04:21:52.142Z,1.33
2019-05-10T04:24:19.760Z,1.10
2019-05-10T04:26:47.378Z,1.30
2019-05-10T04:29:14.899Z,1.30
2019-05-10T04:31:43.175Z,1.40
2019-05-10T04:34:10.859Z,1.63
2019-05-10T04:36:39.220Z,1.37
2019-05-10T04:39:06.879Z,1.40
2019-05-10T04:41:34.564Z,1.37
2019-05-10T04:44:02.055Z,1.60
2019-05-10T04:46:30.295Z,1.57
2019-05-10T04:48:57.867Z,1.23
2019-05-10T04:51:25.539Z,1.50
2019-05-10T04:53:53.085Z,1.30
2019-05-10T04:56:20.602Z,1.50
2019-05-10T04:58:48.219Z,1.53
2019-05-10T05:01:15.896Z,1.30
2019-05-10T05:03:44.141Z,1.00
2019-05-10T05:06:11.757Z,1.30
2019-05-10T05:08:40.532Z,1.30
2019-05-10T05:11:08.183Z,1.00
2019-05-10T05:13:35.747Z,1.33
2019-05-10T05:16:04.493Z,1.20
2019-05-10T05:18:32.073Z,1.20
2019-05-10T05:20:59.798Z,1.80
2019-05-10T05:23:28.036Z,1.30
2019-05-10T05:25:55.718Z,1.53
2019-05-10T05:28:24.659Z,1.30
2019-05-10T05:30:50.724Z,1.30
2019-05-10T05:33:18.321Z,1.13
2019-05-10T05:35:46.587Z,1.30
2019-05-10T05:38:14.837Z,1.30
2019-05-10T05:40:42.543Z,1.50
2019-05-10T05:43:11.864Z,1.50
2019-05-10T05:45:39.417Z,1.00
2019-05-10T05:48:07.107Z,1.40
2019-05-10T05:50:35.470Z,1.50
2019-05-10T05:53:04.241Z,1.47
2019-05-10T05:55:32.293Z,1.50
2019-05-10T05:58:04.867Z,1.20
2019-05-10T06:00:30.111Z,1.37
2019-05-10T06:02:57.605Z,1.60
2019-05-10T06:05:34.887Z,1.30
2019-05-10T06:07:53.468Z,1.90
2019-05-10T06:10:21.211Z,1.33
2019-05-10T06:12:50.522Z,1.30
2019-05-10T06:15:16.284Z,1.17
2019-05-10T06:17:43.794Z,1.60
2019-05-10T06:20:12.072Z,1.30
2019-05-10T06:22:43.812Z,1.60
2019-05-10T06:25:08.733Z,1.23
2019-05-10T06:27:41.217Z,1.40
2019-05-10T06:30:04.219Z,1.50
2019-05-10T06:32:31.820Z,1.60
2019-05-10T06:34:59.390Z,1.27
2019-05-10T06:37:27.066Z,1.37
2019-05-10T06:39:54.554Z,1.40
2019-05-10T06:42:22.870Z,1.60
2019-05-10T06:44:50.617Z,1.53
2019-05-10T06:47:21.516Z,1.43
2019-05-10T06:49:50.594Z,1.60
2019-05-10T06:52:16.453Z,1.40
2019-05-10T06:54:43.807Z,1.47
2019-05-10T06:57:17.318Z,1.60
2019-05-10T06:59:38.930Z,1.13
2019-05-10T07:02:06.429Z,1.47
2019-05-10T07:04:37.861Z,1.23
2019-05-10T07:07:01.622Z,1.60
2019-05-10T07:09:29.128Z,1.47
2019-05-10T07:11:57.370Z,1.60
2019-05-10T07:14:27.136Z,1.53
2019-05-10T07:16:56.619Z,1.60
2019-05-10T07:19:20.775Z,1.90
2019-05-10T07:21:51.278Z,1.40
2019-05-10T07:24:18.214Z,1.50
2019-05-10T07:26:44.297Z,1.47
2019-05-10T07:29:11.769Z,1.30
2019-05-10T07:31:41.328Z,1.63
2019-05-10T07:34:15.059Z,1.30
2019-05-10T07:36:36.798Z,1.50
2019-05-10T07:39:08.463Z,1.20
2019-05-10T07:41:31.797Z,1.70
2019-05-10T07:44:00.400Z,1.50
2019-05-10T07:46:26.823Z,1.53
2019-05-10T07:48:54.430Z,1.20
2019-05-10T07:51:28.322Z,1.47
2019-05-10T07:53:51.077Z,1.37
2019-05-10T07:56:18.576Z,1.40
2019-05-10T07:58:46.081Z,1.63
2019-05-10T08:01:13.561Z,1.20
2019-05-10T08:03:48.185Z,1.53
2019-05-10T08:06:10.809Z,1.43
2019-05-10T08:08:39.081Z,1.70
2019-05-10T08:11:05.849Z,0.98
2019-05-10T08:13:33.417Z,1.10
2019-05-10T08:16:05.523Z,1.40
2019-05-10T08:18:29.350Z,1.50
2019-05-10T08:21:01.988Z,1.23
2019-05-10T08:23:27.788Z,1.50
2019-05-10T08:25:53.319Z,0.90
2019-05-10T08:28:22.680Z,1.20
2019-05-10T08:30:53.427Z,1.50
2019-05-10T08:33:14.990Z,1.10
2019-05-10T08:35:45.583Z,1.10
2019-05-10T08:38:10.051Z,1.23
2019-05-10T08:40:38.141Z,1.30
2019-05-10T08:43:08.935Z,1.50
2019-05-10T08:45:33.028Z,1.03
2019-05-10T08:48:06.911Z,1.30
2019-05-10T08:50:44.254Z,1.23
2019-05-10T08:52:56.970Z,1.70
2019-05-10T08:55:23.767Z,1.50
2019-05-10T08:57:52.498Z,1.70
2019-05-10T09:00:38.317Z,1.33
2019-05-10T09:02:47.279Z,1.20
2019-05-10T09:05:14.945Z,1.40
2019-05-10T09:07:43.034Z,1.20
2019-05-10T09:10:12.558Z,1.40
2019-05-10T09:12:41.756Z,1.37
2019-05-10T09:15:09.719Z,1.33
2019-05-10T09:17:32.662Z,1.37
2019-05-10T09:20:02.495Z,1.13
2019-05-10T09:22:34.108Z,1.20
2019-05-10T09:24:55.937Z,0.90
2019-05-10T09:27:29.111Z,1.10
2019-05-10T09:29:53.557Z,1.20
2019-05-10T09:32:28.574Z,1.20
2019-05-10T09:34:48.898Z,1.30
2019-05-10T09:37:17.779Z,1.30
2019-05-10T09:39:43.840Z,1.10
2019-05-10T09:42:24.955Z,1.40
2019-05-10T09:44:39.579Z,1.40
2019-05-10T09:47:07.044Z,1.73
2019-05-10T09:49:34.508Z,1.50
2019-05-10T09:52:04.609Z,1.33
2019-05-10T09:54:33.386Z,1.50
2019-05-10T09:56:57.599Z,1.23
2019-05-10T09:59:30.024Z,1.20
2019-05-10T10:01:57.505Z,1.40
2019-05-10T10:04:27.987Z,1.10
2019-05-10T10:06:53.292Z,1.17
2019-05-10T10:09:24.580Z,1.40
2019-05-10T10:11:58.080Z,1.30
2019-05-10T10:14:17.923Z,1.47
2019-05-10T10:16:48.904Z,1.60
2019-05-10T10:19:10.861Z,1.40
2019-05-10T10:21:39.079Z,1.30
2019-05-10T10:24:15.544Z,1.50
2019-05-10T10:26:33.292Z,1.37
2019-05-10T10:29:00.795Z,1.30
2019-05-10T10:31:33.118Z,1.87
2019-05-10T10:33:59.634Z,1.40
2019-05-10T10:36:27.266Z,1.30
2019-05-10T10:38:53.625Z,1.40
2019-05-10T10:41:25.928Z,1.60
2019-05-10T10:43:52.152Z,1.20
2019-05-10T10:46:20.469Z,1.57
2019-05-10T10:48:51.088Z,1.37
2019-05-10T10:51:18.206Z,1.57
2019-05-10T10:53:43.761Z,1.60
2019-05-10T10:56:11.246Z,1.33
2019-05-10T10:58:38.734Z,1.33
2019-05-10T11:01:10.836Z,1.63
2019-05-10T11:03:33.772Z,1.40
2019-05-10T11:06:01.245Z,1.20
2019-05-10T11:08:32.848Z,1.50
2019-05-10T11:10:57.875Z,1.37
2019-05-10T11:13:41.617Z,1.60
2019-05-10T11:15:58.887Z,1.03
2019-05-10T11:18:22.027Z,1.30
2019-05-10T11:20:53.748Z,1.20
2019-05-10T11:23:18.177Z,1.20
2019-05-10T11:25:54.862Z,1.27
2019-05-10T11:28:14.001Z,1.10
2019-05-10T11:30:42.248Z,1.43
2019-05-10T11:33:23.800Z,1.50
2019-05-10T11:35:37.199Z,1.10
2019-05-10T11:38:06.662Z,1.17
2019-05-10T11:40:34.877Z,1.47
2019-05-10T11:43:01.467Z,1.40
2019-05-10T11:45:34.401Z,1.20
2019-05-10T11:48:01.530Z,1.60
2019-05-10T11:50:31.315Z,1.30
2019-05-10T11:52:51.388Z,1.43
2019-05-10T11:55:18.078Z,1.27
2019-05-10T11:58:00.756Z,1.33
2019-05-10T12:00:24.685Z,1.27
2019-05-10T12:03:01.876Z,1.30
2019-05-10T12:05:17.756Z,1.30
2019-05-10T12:07:45.477Z,1.10
2019-05-10T12:10:14.449Z,1.20
2019-05-10T12:12:50.683Z,1.30
2019-05-10T12:17:29.657Z,1.20
2019-05-10T12:19:58.103Z,1.27
2019-05-10T12:22:32.074Z,1.30
2019-05-10T12:25:17.893Z,1.10
2019-05-10T12:26:50.396Z,1.50
2019-05-10T12:27:28.621Z,1.50
2019-05-10T12:29:55.551Z,1.27
2019-05-10T12:32:16.112Z,1.23
2019-05-10T12:34:46.065Z,1.47
2019-05-10T12:37:11.130Z,1.40
2019-05-10T12:39:38.674Z,1.20
2019-05-10T12:42:06.147Z,1.40
2019-05-10T12:44:33.674Z,1.37
2019-05-10T12:47:01.350Z,1.50
2019-05-10T12:49:28.585Z,1.40
2019-05-10T12:51:56.361Z,1.20
2019-05-10T12:54:25.458Z,1.23
2019-05-10T12:56:51.522Z,1.20
2019-05-10T12:59:19.020Z,1.20
2019-05-10T13:01:49.740Z,1.17
2019-05-10T13:04:17.213Z,1.30
2019-05-10T13:06:44.885Z,1.20
2019-05-10T13:09:12.368Z,1.30
2019-05-10T13:11:39.851Z,1.20
2019-05-10T13:14:09.736Z,1.50
2019-05-10T13:16:35.599Z,1.40
2019-05-10T13:19:04.557Z,1.43
2019-05-10T13:21:33.959Z,1.00
2019-05-10T13:24:01.445Z,1.37
2019-05-10T13:26:28.900Z,1.67
2019-05-10T13:28:56.448Z,1.13
2019-05-10T13:31:23.915Z,1.40
2019-05-10T13:33:51.398Z,1.20
2019-05-10T13:36:18.879Z,1.37
2019-05-10T13:38:49.252Z,1.20
2019-05-10T13:41:21.455Z,1.20
2019-05-10T13:43:42.187Z,1.37
2019-05-10T13:46:09.652Z,1.17
2019-05-10T13:48:37.130Z,1.47
2019-05-10T13:51:05.438Z,1.02
2019-05-10T13:53:32.842Z,1.40
2019-05-10T13:56:00.335Z,1.20
2019-05-10T13:58:28.579Z,1.07
2019-05-10T14:00:56.057Z,1.40
2019-05-10T14:03:23.531Z,1.30
2019-05-10T14:05:51.762Z,1.37
2019-05-10T14:08:19.243Z,1.30
2019-05-10T14:10:49.400Z,1.80
2019-05-10T14:13:16.645Z,1.43
2019-05-10T14:15:42.563Z,1.50
2019-05-10T14:18:10.052Z,1.33
2019-05-10T14:20:37.525Z,1.47
2019-05-10T14:23:05.897Z,1.37
2019-05-10T14:25:39.017Z,1.27
2019-05-10T14:28:01.703Z,1.20
2019-05-10T14:30:29.254Z,1.33
2019-05-10T14:32:56.736Z,1.50
2019-05-10T14:35:24.539Z,1.40
2019-05-10T14:37:51.762Z,1.30
2019-05-10T14:40:27.483Z,1.20
2019-05-10T14:42:46.974Z,1.13
2019-05-10T14:45:14.445Z,1.30
2019-05-10T14:47:48.423Z,1.30
2019-05-10T14:50:09.415Z,1.43
2019-05-10T14:52:37.671Z,1.37
2019-05-10T14:55:05.150Z,1.33
2019-05-10T14:57:32.632Z,1.20
2019-05-10T15:00:02.289Z,1.33
2019-05-10T15:02:29.102Z,1.10
2019-05-10T15:04:56.662Z,1.80
2019-05-10T15:07:24.986Z,1.20
2019-05-10T15:09:54.166Z,1.17
2019-05-10T15:12:22.714Z,1.47
2019-05-10T15:14:48.721Z,1.60
2019-05-10T15:17:19.615Z,1.20
2019-05-10T15:19:56.543Z,1.17
2019-05-10T15:22:11.169Z,1.10
2019-05-10T15:24:38.640Z,1.20
2019-05-10T15:27:06.115Z,1.00
2019-05-10T15:29:33.616Z,1.33
2019-05-10T15:32:01.369Z,1.10
2019-05-10T15:34:28.915Z,1.43
2019-05-10T15:37:02.624Z,1.37
2019-05-10T15:39:28.966Z,1.23
2019-05-10T15:41:59.271Z,1.33
2019-05-10T15:44:30.200Z,1.27
2019-05-10T15:46:49.419Z,1.30
2019-05-10T15:49:22.727Z,1.50
2019-05-10T15:51:48.967Z,1.10
2019-05-10T15:54:11.972Z,1.10
2019-05-10T15:56:41.516Z,1.23
2019-05-10T15:59:12.720Z,1.30
2019-05-10T16:01:35.515Z,1.57
2019-05-10T16:04:04.532Z,1.23
2019-05-10T16:06:37.609Z,0.83
2019-05-10T16:09:03.533Z,1.00
2019-05-10T16:11:27.023Z,1.10
2019-05-10T16:13:59.536Z,1.20
2019-05-10T16:16:22.064Z,1.20
2019-05-10T16:18:49.609Z,1.10
2019-05-10T16:21:17.092Z,1.23
2019-05-10T16:23:46.781Z,1.23
2019-05-10T16:26:17.415Z,1.00
2019-05-10T16:28:40.664Z,1.23
2019-05-10T16:31:08.238Z,1.20
2019-05-10T16:33:36.367Z,1.50
2019-05-10T16:36:04.635Z,1.58
2019-05-10T16:38:32.645Z,1.10
2019-05-10T16:41:00.721Z,1.00
2019-05-10T16:43:31.388Z,1.07
2019-05-10T16:45:58.885Z,1.20
2019-05-10T16:48:28.415Z,1.20
2019-05-10T16:50:54.591Z,1.10
2019-05-10T16:53:22.077Z,1.10
2019-05-10T16:55:49.536Z,1.10
2019-05-10T16:58:18.037Z,1.20
2019-05-10T17:00:46.352Z,1.00
2019-05-10T17:03:13.039Z,1.00
2019-05-10T17:05:52.713Z,1.20
2019-05-10T17:08:07.859Z,1.17
2019-05-10T17:10:35.371Z,1.03
2019-05-10T17:13:05.036Z,0.87
2019-05-10T17:15:33.803Z,0.97
2019-05-10T17:18:00.089Z,1.10
2019-05-10T17:20:27.563Z,1.30
2019-05-10T17:22:55.023Z,1.00
2019-05-10T17:25:22.795Z,1.20
2019-05-10T17:27:50.601Z,1.17
2019-05-10T17:30:22.381Z,1.03
2019-05-10T17:32:45.889Z,1.30
2019-05-10T17:35:13.347Z,1.40
2019-05-10T17:37:40.882Z,3.73
2019-05-10T17:40:10.135Z,2.50
2019-05-10T17:42:41.336Z,1.40
2019-05-10T17:45:06.515Z,2.00
2019-05-10T17:47:34.624Z,1.60
2019-05-10T17:50:02.095Z,2.20
2019-05-10T17:52:29.553Z,1.50
2019-05-10T17:54:57.860Z,1.77
2019-05-10T17:57:25.322Z,1.80
2019-05-10T17:59:54.566Z,1.83
2019-05-10T18:02:20.265Z,1.60
2019-05-10T18:04:48.506Z,1.60
2019-05-10T18:07:15.983Z,1.40
2019-05-10T18:09:43.444Z,1.70
2019-05-10T18:12:15.666Z,1.67
2019-05-10T18:14:39.414Z,4.63
2019-05-10T18:17:07.486Z,5.00
2019-05-10T18:19:35.733Z,5.83
2019-05-10T18:22:06.377Z,2.17
2019-05-10T18:24:36.479Z,1.33
2019-05-10T18:27:00.500Z,1.50
2019-05-10T18:29:27.985Z,1.40
2019-05-10T18:31:58.066Z,1.30
2019-05-10T18:34:26.493Z,1.60
2019-05-10T18:36:51.965Z,1.63
2019-05-10T18:39:18.071Z,1.60
2019-05-10T18:41:46.662Z,1.30
2019-05-10T18:44:14.151Z,1.57
2019-05-10T18:46:40.518Z,1.80
2019-05-10T18:49:08.085Z,1.40
2019-05-10T18:51:35.563Z,1.57
2019-05-10T18:54:04.548Z,1.53
2019-05-10T18:56:33.245Z,1.30
2019-05-10T18:59:06.525Z,1.37
2019-05-10T19:01:27.468Z,1.40
2019-05-10T19:03:55.725Z,1.40
2019-05-10T19:06:23.288Z,1.30
2019-05-10T19:08:51.639Z,1.20
2019-05-10T19:11:19.175Z,1.67
2019-05-10T19:13:49.659Z,1.30
2019-05-10T19:16:14.166Z,1.33
2019-05-10T19:18:42.772Z,1.43
2019-05-10T19:21:11.080Z,1.20
2019-05-10T19:23:39.681Z,1.20
2019-05-10T19:26:07.267Z,1.30
2019-05-10T19:28:35.193Z,1.52
2019-05-10T19:31:04.449Z,1.67
2019-05-10T19:33:36.602Z,1.27
2019-05-10T19:35:59.595Z,1.43
2019-05-10T19:38:27.071Z,1.13
2019-05-10T19:40:56.629Z,1.80
2019-05-10T19:43:24.122Z,1.40
2019-05-10T19:45:57.633Z,1.60
2019-05-10T19:48:19.124Z,1.53
2019-05-10T19:50:46.595Z,1.50
2019-05-10T19:53:14.058Z,1.43
2019-05-10T19:55:41.544Z,1.60
2019-05-10T19:58:09.016Z,1.60
2019-05-10T20:00:36.481Z,1.73
2019-05-10T20:03:03.964Z,1.47
2019-05-10T20:05:32.213Z,1.60
2019-05-10T20:07:59.681Z,2.00
2019-05-10T20:10:28.030Z,1.50
2019-05-10T20:12:55.571Z,1.73
2019-05-10T20:15:23.049Z,1.60
2019-05-10T20:17:50.529Z,1.80
2019-05-10T20:20:18.063Z,1.67
2019-05-10T20:22:45.550Z,1.53
2019-05-10T20:25:13.096Z,1.30
2019-05-10T20:27:40.561Z,1.53
2019-05-10T20:30:08.036Z,1.43
2019-05-10T20:32:35.514Z,1.87
2019-05-10T20:35:03.963Z,1.50
2019-05-10T20:37:31.662Z,1.70
2019-05-10T20:39:59.134Z,1.60
2019-05-10T20:42:26.681Z,1.50
2019-05-10T20:45:06.716Z,1.87
2019-05-10T20:47:21.732Z,1.53
2019-05-10T20:49:49.212Z,1.60
2019-05-10T20:52:16.787Z,1.93
2019-05-10T20:54:45.109Z,2.03
2019-05-10T20:57:12.657Z,1.80
2019-05-10T20:59:40.142Z,1.60
2019-05-10T21:02:07.825Z,1.80
2019-05-10T21:04:35.193Z,1.60
2019-05-10T21:07:02.669Z,2.27
2019-05-10T21:09:30.140Z,1.97
2019-05-10T21:11:57.601Z,1.60
2019-05-10T21:14:25.085Z,1.47
2019-05-10T21:16:53.327Z,1.50
2019-05-10T21:19:21.633Z,1.40
2019-05-10T21:21:50.164Z,1.60
2019-05-10T21:24:18.769Z,1.50
2019-05-10T21:26:59.301Z,1.70
2019-05-10T21:29:27.698Z,2.20
2019-05-10T21:31:56.829Z,1.87
2019-05-10T21:34:24.508Z,1.50
2019-05-10T21:36:51.996Z,1.63
2019-05-10T21:39:20.231Z,1.50
2019-05-10T21:41:48.394Z,2.23
2019-05-10T21:44:15.880Z,1.60
2019-05-10T21:46:43.402Z,1.60
2019-05-10T21:49:11.825Z,1.77
2019-05-10T21:51:39.289Z,1.97
2019-05-10T21:54:06.768Z,1.43
2019-05-10T21:56:37.694Z,1.53
2019-05-10T21:59:05.069Z,1.70
2019-05-10T22:01:34.211Z,1.70
2019-05-10T22:04:07.129Z,2.00
2019-05-10T22:06:34.609Z,1.80
2019-05-10T22:09:09.408Z,1.70
2019-05-10T22:11:36.866Z,2.00
2019-05-10T22:14:04.412Z,2.00
2019-05-10T22:16:32.714Z,1.70
2019-05-10T22:19:01.288Z,1.93
2019-05-10T22:21:29.531Z,1.80
2019-05-10T22:23:56.985Z,1.97
2019-05-10T22:26:24.468Z,1.93
2019-05-10T22:28:51.940Z,2.20
2019-05-10T22:31:21.081Z,2.00
2019-05-10T22:33:48.577Z,1.70
2019-05-10T22:36:16.052Z,2.10
2019-05-10T22:38:43.536Z,2.00
2019-05-10T22:41:11.778Z,2.23
2019-05-10T22:43:40.387Z,2.20
2019-05-10T22:46:07.868Z,2.08
2019-05-10T22:48:36.096Z,1.80
2019-05-10T22:51:04.378Z,1.67
2019-05-10T22:53:31.851Z,1.90
2019-05-10T22:55:59.348Z,1.73
2019-05-10T22:58:26.805Z,2.20
2019-05-10T23:00:54.271Z,1.90
2019-05-10T23:03:24.629Z,2.03
2019-05-10T23:05:50.066Z,2.57
2019-05-10T23:08:18.306Z,1.70
2019-05-10T23:10:46.564Z,2.30
2019-05-10T23:13:14.109Z,1.73
2019-05-10T23:15:41.586Z,2.00
2019-05-10T23:18:09.118Z,2.00
2019-05-10T23:20:36.624Z,1.97
2019-05-10T23:23:04.185Z,1.83
2019-05-10T23:25:31.743Z,2.30
2019-05-10T23:27:59.282Z,1.90
2019-05-10T23:30:26.830Z,2.03
2019-05-10T23:32:54.294Z,2.50
2019-05-10T23:35:21.789Z,1.93
2019-05-10T23:37:49.265Z,2.20
2019-05-10T23:40:16.780Z,1.70
2019-05-10T23:42:44.302Z,1.57
2019-05-10T23:45:11.850Z,1.60
2019-05-10T23:47:39.333Z,2.10
2019-05-10T23:50:06.807Z,1.73
2019-05-10T23:52:35.053Z,1.90
2019-05-10T23:55:02.545Z,1.80
2019-05-10T23:57:30.004Z,2.10
2019-05-10T23:59:57.485Z,2.37
